Time;durP1;ratioP1;P1;durP2;ratioP2;P2;SDS_P1;SDS_P2;PMS_P1;PMS_P2;Temp;Humidity;BMP_temperature;BMP_pressure;BME280_temperature;BME280_humidity;BME280_pressure;Samples;Min_cycle;Max_cycle;Signal;HPM_P1;HPM_P2
2021/01/20 00:00:33;;;;;;;2.07;0.30;;;5.30;99.90;;;;;;5046845;28;21108;-61
2021/01/20 00:02:58;;;;;;;2.93;1.10;;;5.20;99.90;;;;;;5046183;28;20213;-60
2021/01/20 00:05:24;;;;;;;1.70;0.20;;;5.30;99.90;;;;;;5042352;28;20201;-61
2021/01/20 00:07:50;;;;;;;1.80;0.30;;;5.30;99.90;;;;;;5046061;28;20661;-60
2021/01/20 00:10:18;;;;;;;2.17;0.60;;;5.30;99.90;;;;;;5036396;28;20218;-60
2021/01/20 00:12:48;;;;;;;2.90;0.80;;;5.30;99.90;;;;;;5034043;28;20186;-60
2021/01/20 00:15:24;;;;;;;2.00;0.68;;;5.30;99.90;;;;;;5035597;28;20186;-60
2021/01/20 00:17:49;;;;;;;3.17;1.67;;;5.30;99.90;;;;;;5034283;28;20201;-60
2021/01/20 00:20:15;;;;;;;2.67;0.90;;;5.30;99.90;;;;;;5031472;28;20198;-60
2021/01/20 00:22:47;;;;;;;1.80;0.40;;;5.30;99.90;;;;;;5033306;28;20433;-60
2021/01/20 00:25:17;;;;;;;1.70;0.20;;;5.30;99.90;;;;;;5028868;28;20436;-60
2021/01/20 00:27:43;;;;;;;1.70;0.20;;;5.20;99.90;;;;;;5032641;28;20197;-60
2021/01/20 00:30:09;;;;;;;1.70;0.20;;;5.20;99.90;;;;;;5034148;28;20213;-60
2021/01/20 00:32:35;;;;;;;3.35;1.30;;;5.20;99.90;;;;;;5031404;28;20213;-60
2021/01/20 00:35:04;;;;;;;2.53;0.60;;;5.20;99.90;;;;;;5031512;28;20637;-60
2021/01/20 00:37:29;;;;;;;2.70;1.00;;;5.20;99.90;;;;;;5033214;28;20717;-60
2021/01/20 00:39:55;;;;;;;1.73;0.27;;;5.10;99.90;;;;;;5032472;28;20213;-60
2021/01/20 00:42:21;;;;;;;1.90;0.40;;;5.10;99.90;;;;;;5030723;28;20193;-60
2021/01/20 00:44:46;;;;;;;1.73;0.30;;;5.10;99.90;;;;;;5038373;28;20186;-60
2021/01/20 00:47:12;;;;;;;1.80;0.40;;;5.20;99.90;;;;;;5031556;28;20576;-60
2021/01/20 00:49:37;;;;;;;1.80;0.33;;;5.10;99.90;;;;;;5032205;28;20343;-60
2021/01/20 00:52:03;;;;;;;1.70;0.20;;;5.10;99.90;;;;;;5037397;28;20205;-60
2021/01/20 00:54:28;;;;;;;1.70;0.20;;;5.10;99.90;;;;;;5030469;28;20182;-60
2021/01/20 00:56:54;;;;;;;3.20;1.07;;;5.10;99.90;;;;;;5030944;28;20678;-60
2021/01/20 00:59:19;;;;;;;1.90;0.43;;;5.10;99.90;;;;;;5027864;28;20201;-60
2021/01/20 01:01:45;;;;;;;1.70;0.20;;;5.10;99.90;;;;;;5030766;28;20600;-60
2021/01/20 01:04:10;;;;;;;2.30;1.53;;;5.10;99.90;;;;;;5032600;28;20278;-60
2021/01/20 01:06:36;;;;;;;2.37;0.60;;;5.10;99.90;;;;;;5032532;28;20538;-60
2021/01/20 01:09:01;;;;;;;1.70;0.20;;;5.10;99.90;;;;;;5033209;28;20248;-59
2021/01/20 01:11:27;;;;;;;1.70;0.20;;;5.20;99.90;;;;;;5033110;28;20238;-59
2021/01/20 01:13:52;;;;;;;2.20;0.73;;;5.20;99.90;;;;;;5027902;28;20216;-60
2021/01/20 01:16:18;;;;;;;1.70;0.20;;;5.20;99.90;;;;;;5030357;28;20218;-59
2021/01/20 01:18:43;;;;;;;1.70;0.20;;;5.20;99.90;;;;;;5033519;28;20569;-59
2021/01/20 01:21:09;;;;;;;1.97;0.50;;;5.20;99.90;;;;;;5031476;28;20638;-60
2021/01/20 01:23:34;;;;;;;2.23;0.77;;;5.30;99.90;;;;;;5032586;28;20194;-60
2021/01/20 01:26:00;;;;;;;1.70;0.20;;;5.30;99.90;;;;;;5034162;28;20212;-60
2021/01/20 01:28:25;;;;;;;2.97;1.00;;;5.40;99.90;;;;;;5028552;28;20214;-59
2021/01/20 01:30:51;;;;;;;1.80;0.30;;;5.40;99.90;;;;;;5039368;28;20213;-59
2021/01/20 01:33:16;;;;;;;2.50;0.87;;;5.50;99.90;;;;;;5032346;28;20656;-60
2021/01/20 01:35:42;;;;;;;2.23;0.50;;;5.50;99.90;;;;;;5027911;28;20182;-60
2021/01/20 01:38:08;;;;;;;1.70;0.20;;;5.50;99.90;;;;;;5032187;28;20193;-60
2021/01/20 01:40:33;;;;;;;3.03;1.07;;;5.50;99.90;;;;;;5031894;28;20214;-60
2021/01/20 01:42:59;;;;;;;2.50;0.40;;;5.60;99.90;;;;;;5029622;28;20190;-59
2021/01/20 01:45:24;;;;;;;1.80;0.40;;;5.60;99.90;;;;;;5032060;28;20170;-59
2021/01/20 01:47:50;;;;;;;1.70;0.20;;;5.70;99.90;;;;;;5026022;28;20185;-59
2021/01/20 01:50:15;;;;;;;2.00;0.60;;;5.70;99.90;;;;;;5026551;28;20214;-60
2021/01/20 01:52:42;;;;;;;1.87;0.57;;;5.70;99.90;;;;;;5030448;28;20185;-60
2021/01/20 01:55:09;;;;;;;1.90;0.47;;;5.70;99.90;;;;;;5028107;28;20277;-60
2021/01/20 01:57:42;;;;;;;1.70;0.20;;;5.70;99.90;;;;;;5032041;28;20734;-60
2021/01/20 02:00:10;;;;;;;1.77;0.28;;;5.80;99.90;;;;;;5028055;28;20209;-60
2021/01/20 02:02:36;;;;;;;2.50;0.68;;;5.80;99.90;;;;;;5027696;28;20181;-60
2021/01/20 02:05:02;;;;;;;1.70;0.20;;;5.80;99.90;;;;;;5030082;28;20187;-60
2021/01/20 02:07:28;;;;;;;1.80;0.30;;;5.80;99.90;;;;;;5030985;28;20668;-60
2021/01/20 02:09:56;;;;;;;2.25;0.73;;;5.80;99.90;;;;;;5026053;28;20715;-60
2021/01/20 02:12:27;;;;;;;1.70;0.20;;;5.80;99.90;;;;;;5031771;28;20186;-59
2021/01/20 02:15:02;;;;;;;2.70;0.77;;;5.90;99.90;;;;;;5030761;28;20190;-60
2021/01/20 02:17:56;;;;;;;1.70;0.20;;;5.90;99.90;;;;;;5027457;28;20208;-60
2021/01/20 02:20:31;;;;;;;2.40;1.17;;;6.00;99.90;;;;;;5023464;28;20216;-60
2021/01/20 02:23:06;;;;;;;1.90;0.50;;;6.00;99.90;;;;;;5032065;28;20185;-60
2021/01/20 02:25:31;;;;;;;1.90;0.55;;;6.00;99.90;;;;;;5028355;28;20173;-60
2021/01/20 02:28:17;;;;;;;1.77;0.27;;;6.00;99.90;;;;;;5030004;28;20197;-60
2021/01/20 02:30:44;;;;;;;3.08;0.68;;;6.10;99.90;;;;;;5030907;28;20188;-60
2021/01/20 02:33:11;;;;;;;1.77;0.30;;;6.10;99.90;;;;;;5029750;28;20229;-60
2021/01/20 02:35:38;;;;;;;1.80;0.30;;;6.10;99.90;;;;;;5030921;28;20260;-60
2021/01/20 02:38:04;;;;;;;1.80;0.50;;;6.20;99.80;;;;;;5030986;28;20190;-60
2021/01/20 02:40:31;;;;;;;1.77;0.20;;;6.20;99.80;;;;;;5028519;28;20495;-60
2021/01/20 02:42:58;;;;;;;1.90;0.32;;;6.20;99.80;;;;;;5031757;28;20479;-60
2021/01/20 02:45:24;;;;;;;2.35;0.63;;;6.20;99.90;;;;;;5030992;28;20216;-60
2021/01/20 02:47:50;;;;;;;3.33;0.97;;;6.20;99.50;;;;;;5029682;28;20307;-60
2021/01/20 02:50:16;;;;;;;1.90;0.40;;;6.20;99.30;;;;;;5031299;28;20464;-60
2021/01/20 02:52:54;;;;;;;1.83;0.30;;;6.20;99.30;;;;;;5028259;28;20645;-60
2021/01/20 02:55:21;;;;;;;1.73;0.20;;;6.20;99.30;;;;;;5027391;28;20189;-60
2021/01/20 02:57:55;;;;;;;1.80;0.30;;;6.20;99.40;;;;;;5033348;28;20210;-61
2021/01/20 03:00:24;;;;;;;1.70;0.20;;;6.20;99.50;;;;;;5029847;28;20256;-60
2021/01/20 03:02:52;;;;;;;2.00;0.67;;;6.20;99.30;;;;;;5030635;28;20591;-60
2021/01/20 03:05:19;;;;;;;3.35;1.10;;;6.20;99.30;;;;;;5031499;28;20475;-60
2021/01/20 03:07:45;;;;;;;1.70;0.20;;;6.30;98.80;;;;;;5030704;28;20197;-60
2021/01/20 03:10:13;;;;;;;1.70;0.20;;;6.40;98.40;;;;;;5029810;28;20205;-60
2021/01/20 03:12:38;;;;;;;2.00;0.47;;;6.40;98.60;;;;;;5030337;28;20194;-60
2021/01/20 03:15:21;;;;;;;2.13;0.90;;;6.40;98.20;;;;;;5027952;28;20189;-60
2021/01/20 03:17:46;;;;;;;1.90;0.30;;;6.40;98.20;;;;;;5025502;28;20206;-60
2021/01/20 03:20:12;;;;;;;2.60;1.03;;;6.40;98.20;;;;;;5029915;28;20221;-60
2021/01/20 03:22:38;;;;;;;1.70;0.20;;;6.40;98.20;;;;;;5031194;28;20193;-60
2021/01/20 03:25:04;;;;;;;1.70;0.20;;;6.40;98.20;;;;;;5027505;28;20444;-60
2021/01/20 03:27:29;;;;;;;1.70;0.20;;;6.50;98.30;;;;;;5027455;28;20658;-60
2021/01/20 03:29:55;;;;;;;1.70;0.20;;;6.40;98.60;;;;;;5030662;28;20471;-60
2021/01/20 03:32:20;;;;;;;1.70;0.30;;;6.40;98.40;;;;;;5027753;28;20213;-60
2021/01/20 03:34:46;;;;;;;1.80;0.40;;;6.40;98.30;;;;;;5031351;28;20201;-60
2021/01/20 03:37:12;;;;;;;1.80;0.30;;;6.40;98.40;;;;;;5031477;28;20206;-60
2021/01/20 03:39:37;;;;;;;2.53;0.80;;;6.40;98.20;;;;;;5030921;28;20229;-60
2021/01/20 03:42:03;;;;;;;1.77;0.30;;;6.40;98.30;;;;;;5032047;28;20177;-60
2021/01/20 03:44:28;;;;;;;2.30;0.80;;;6.40;98.40;;;;;;5031876;28;20178;-60
2021/01/20 03:46:54;;;;;;;1.80;0.40;;;6.40;98.10;;;;;;5032319;28;20181;-60
2021/01/20 03:49:19;;;;;;;1.70;0.20;;;6.40;98.40;;;;;;5033846;28;20245;-60
2021/01/20 03:51:45;;;;;;;1.87;0.30;;;6.30;98.50;;;;;;5045868;22;20222;-63
2021/01/20 03:54:14;;;;;;;1.70;0.20;;;6.30;98.70;;;;;;4996339;28;20178;-63
2021/01/20 03:56:40;;;;;;;1.70;0.20;;;6.30;98.80;;;;;;5009706;28;20210;-63
2021/01/20 03:59:06;;;;;;;1.70;0.20;;;6.20;98.70;;;;;;5014165;28;20700;-63
2021/01/20 04:01:32;;;;;;;2.30;0.40;;;6.20;98.70;;;;;;5013477;28;20688;-63
2021/01/20 04:03:58;;;;;;;2.10;0.60;;;6.20;98.70;;;;;;5013951;28;20451;-63
2021/01/20 04:06:24;;;;;;;2.80;0.70;;;6.20;98.50;;;;;;5019493;28;20256;-63
2021/01/20 04:08:50;;;;;;;1.90;0.60;;;6.20;98.60;;;;;;5008982;28;20187;-63
2021/01/20 04:11:19;;;;;;;1.80;0.30;;;6.20;98.80;;;;;;5029768;28;20476;-65
2021/01/20 04:13:46;;;;;;;1.70;0.30;;;6.20;98.50;;;;;;5026964;28;20433;-63
2021/01/20 04:16:11;;;;;;;4.72;1.65;;;6.20;98.50;;;;;;5014319;28;20546;-63
2021/01/20 04:18:37;;;;;;;1.80;0.40;;;6.20;98.70;;;;;;5012111;28;20206;-63
2021/01/20 04:21:02;;;;;;;1.70;0.20;;;6.20;98.90;;;;;;5011405;28;20206;-63
2021/01/20 04:23:28;;;;;;;1.80;0.40;;;6.10;99.10;;;;;;5013973;28;20179;-63
2021/01/20 04:25:54;;;;;;;3.03;1.37;;;6.10;99.30;;;;;;5011893;28;20175;-63
2021/01/20 04:28:19;;;;;;;2.30;0.97;;;6.10;99.50;;;;;;5016964;28;20194;-63
2021/01/20 04:30:44;;;;;;;1.70;0.20;;;6.00;99.50;;;;;;4995656;28;20190;-63
2021/01/20 04:33:10;;;;;;;2.10;0.57;;;6.00;99.60;;;;;;5009200;28;20182;-63
2021/01/20 04:35:36;;;;;;;1.70;0.20;;;6.00;99.50;;;;;;5016897;28;20183;-63
2021/01/20 04:38:01;;;;;;;2.50;0.50;;;6.00;99.50;;;;;;5012256;28;20684;-63
2021/01/20 04:40:27;;;;;;;1.80;0.30;;;6.00;99.60;;;;;;5013038;28;20281;-63
2021/01/20 04:42:55;;;;;;;1.70;0.20;;;6.00;99.60;;;;;;5010568;28;20804;-63
2021/01/20 04:45:21;;;;;;;1.70;0.20;;;6.00;99.50;;;;;;5007326;28;20442;-63
2021/01/20 04:47:47;;;;;;;3.13;1.15;;;6.00;99.60;;;;;;5011287;28;20266;-63
2021/01/20 04:50:16;;;;;;;1.73;0.25;;;6.00;99.70;;;;;;5013244;28;20222;-63
2021/01/20 04:52:45;;;;;;;3.03;0.73;;;6.00;99.60;;;;;;5015268;28;20225;-63
2021/01/20 04:55:13;;;;;;;1.70;0.20;;;6.00;99.70;;;;;;5012306;28;20648;-63
2021/01/20 04:57:38;;;;;;;1.70;0.20;;;6.00;99.60;;;;;;5012252;28;20207;-63
2021/01/20 05:00:06;;;;;;;1.70;0.20;;;6.00;99.90;;;;;;5016248;28;20649;-62
2021/01/20 05:02:33;;;;;;;2.25;0.45;;;5.90;99.90;;;;;;5009467;28;20195;-62
2021/01/20 05:05:01;;;;;;;2.90;1.10;;;5.90;99.90;;;;;;5009820;28;20183;-62
2021/01/20 05:07:28;;;;;;;2.00;0.30;;;6.00;99.40;;;;;;5012873;28;20194;-62
2021/01/20 05:09:54;;;;;;;2.30;0.70;;;6.10;99.40;;;;;;5012336;28;20202;-63
2021/01/20 05:12:39;;;;;;;1.70;0.20;;;6.10;98.90;;;;;;5013635;28;20202;-63
2021/01/20 05:15:07;;;;;;;2.20;0.40;;;6.10;98.90;;;;;;5010495;28;20194;-62
2021/01/20 05:17:34;;;;;;;3.90;0.60;;;6.20;98.80;;;;;;5012237;28;20564;-63
2021/01/20 05:20:00;;;;;;;1.70;0.20;;;6.20;98.80;;;;;;5016385;28;20456;-62
2021/01/20 05:22:25;;;;;;;1.90;0.40;;;6.30;98.70;;;;;;5033266;28;20847;-62
2021/01/20 05:25:02;;;;;;;2.00;0.60;;;6.30;98.20;;;;;;5022081;28;20614;-63
2021/01/20 05:27:31;;;;;;;1.70;0.20;;;6.40;98.20;;;;;;5014161;28;20206;-62
2021/01/20 05:30:15;;;;;;;1.70;0.20;;;6.40;98.40;;;;;;5010178;28;20974;-63
2021/01/20 05:32:41;;;;;;;1.70;0.20;;;6.30;98.50;;;;;;5007500;28;20457;-62
2021/01/20 05:35:09;;;;;;;2.53;0.80;;;6.30;98.90;;;;;;5006670;28;20480;-63
2021/01/20 05:37:45;;;;;;;1.80;0.30;;;6.30;99.00;;;;;;5010761;28;20591;-62
2021/01/20 05:40:13;;;;;;;1.70;0.20;;;6.30;98.70;;;;;;5009291;28;20436;-62
2021/01/20 05:42:53;;;;;;;1.77;0.30;;;6.40;98.90;;;;;;5011493;28;20898;-62
2021/01/20 05:45:21;;;;;;;1.90;0.63;;;6.40;98.60;;;;;;5011292;28;20438;-62
2021/01/20 05:48:05;;;;;;;1.80;0.30;;;6.40;98.40;;;;;;5005662;28;20454;-63
2021/01/20 05:50:31;;;;;;;2.00;0.43;;;6.50;98.10;;;;;;5008328;28;20457;-62
2021/01/20 05:53:05;;;;;;;1.70;0.20;;;6.50;97.90;;;;;;5008849;28;20456;-63
2021/01/20 05:55:30;;;;;;;1.80;0.30;;;6.50;98.00;;;;;;5010807;28;20445;-63
2021/01/20 05:57:57;;;;;;;1.70;0.20;;;6.50;98.20;;;;;;5013546;28;20480;-62
2021/01/20 06:00:23;;;;;;;1.70;0.20;;;6.50;97.80;;;;;;5013633;28;20182;-62
2021/01/20 06:02:57;;;;;;;2.20;0.70;;;6.60;97.70;;;;;;5019227;28;20853;-63
2021/01/20 06:05:24;;;;;;;1.90;0.30;;;6.60;97.60;;;;;;5018928;28;20629;-62
2021/01/20 06:07:51;;;;;;;1.70;0.20;;;6.60;97.50;;;;;;5016922;28;20473;-62
2021/01/20 06:10:18;;;;;;;1.70;0.20;;;6.60;97.50;;;;;;5015794;28;20516;-63
2021/01/20 06:12:43;;;;;;;2.30;0.70;;;6.60;97.40;;;;;;5016558;28;20496;-62
2021/01/20 06:15:09;;;;;;;2.40;1.00;;;6.70;97.10;;;;;;5011245;28;20445;-63
2021/01/20 06:17:43;;;;;;;1.70;0.20;;;6.70;96.90;;;;;;5003439;28;20262;-63
2021/01/20 06:20:10;;;;;;;3.70;0.53;;;6.70;97.10;;;;;;4981538;28;20449;-62
2021/01/20 06:22:45;;;;;;;1.70;0.20;;;6.70;96.90;;;;;;5005167;28;20472;-62
2021/01/20 06:25:16;;;;;;;3.20;1.10;;;6.70;97.00;;;;;;5011003;28;20448;-62
2021/01/20 06:27:53;;;;;;;1.70;0.20;;;6.70;97.60;;;;;;5011450;28;20438;-62
2021/01/20 06:30:22;;;;;;;1.73;0.23;;;6.70;97.20;;;;;;5009284;28;20457;-63
2021/01/20 06:32:49;;;;;;;1.70;0.20;;;6.70;97.70;;;;;;5006963;28;20469;-62
2021/01/20 06:35:16;;;;;;;1.80;0.30;;;6.60;97.50;;;;;;5017528;28;20442;-63
2021/01/20 06:37:44;;;;;;;1.90;0.57;;;6.60;97.40;;;;;;5011326;28;20477;-64
2021/01/20 06:40:18;;;;;;;1.80;0.40;;;6.60;97.60;;;;;;5009574;28;20460;-62
2021/01/20 06:42:44;;;;;;;2.97;0.80;;;6.70;97.30;;;;;;5011959;28;20456;-63
2021/01/20 06:45:24;;;;;;;1.70;0.20;;;6.70;97.20;;;;;;5009213;28;20468;-63
2021/01/20 06:47:58;;;;;;;2.30;0.90;;;6.70;97.50;;;;;;5016687;28;20956;-62
2021/01/20 06:50:31;;;;;;;1.80;0.30;;;6.70;96.70;;;;;;5010690;28;20948;-63
2021/01/20 06:53:09;;;;;;;1.70;0.20;;;6.80;96.20;;;;;;5010660;28;20515;-62
2021/01/20 06:55:39;;;;;;;2.10;1.07;;;6.90;96.60;;;;;;5009941;28;20469;-61
2021/01/20 06:58:26;;;;;;;1.80;0.30;;;6.90;96.40;;;;;;5011125;28;20882;-62
2021/01/20 07:01:01;;;;;;;2.13;0.90;;;7.00;95.90;;;;;;5009244;28;20476;-64
2021/01/20 07:03:43;;;;;;;3.43;1.50;;;7.10;95.70;;;;;;5006087;28;20947;-64
2021/01/20 07:06:40;;;;;;;3.20;0.93;;;7.10;95.90;;;;;;5012442;28;20441;-62
2021/01/20 07:09:14;;;;;;;2.53;0.67;;;7.10;95.60;;;;;;5015991;28;20441;-64
2021/01/20 07:11:57;;;;;;;1.70;0.20;;;7.20;95.40;;;;;;5014785;28;20446;-65
2021/01/20 07:14:27;;;;;;;2.07;0.50;;;7.20;95.30;;;;;;5008408;28;20502;-63
2021/01/20 07:16:57;;;;;;;1.70;0.20;;;7.20;95.20;;;;;;5016506;28;20464;-63
2021/01/20 07:19:24;;;;;;;1.80;0.40;;;7.20;95.30;;;;;;5007947;28;20451;-64
2021/01/20 07:21:50;;;;;;;1.70;0.20;;;7.20;95.30;;;;;;5017365;28;20479;-64
2021/01/20 07:24:15;;;;;;;2.13;0.53;;;7.20;95.20;;;;;;5016132;28;20877;-65
2021/01/20 07:26:41;;;;;;;1.70;0.20;;;7.20;95.10;;;;;;5024069;28;20269;-65
2021/01/20 07:29:16;;;;;;;1.70;0.20;;;7.20;95.10;;;;;;5005788;28;20191;-65
2021/01/20 07:31:50;;;;;;;1.80;0.30;;;7.20;95.10;;;;;;5017262;28;20676;-64
2021/01/20 07:34:17;;;;;;;1.70;0.30;;;7.20;95.30;;;;;;5012102;28;21330;-65
2021/01/20 07:36:43;;;;;;;2.83;0.40;;;7.30;95.10;;;;;;5016562;28;20473;-65
2021/01/20 07:39:22;;;;;;;1.70;0.20;;;7.30;94.70;;;;;;5013063;28;20479;-65
2021/01/20 07:41:56;;;;;;;1.70;0.20;;;7.30;95.20;;;;;;5012997;28;20475;-64
2021/01/20 07:44:22;;;;;;;1.70;0.20;;;7.30;94.90;;;;;;5021994;28;20506;-64
2021/01/20 07:47:08;;;;;;;1.70;0.20;;;7.30;95.00;;;;;;5005698;28;20449;-64
2021/01/20 07:49:35;;;;;;;1.70;0.20;;;7.40;94.80;;;;;;5012152;28;20195;-65
2021/01/20 07:52:05;;;;;;;2.37;0.40;;;7.50;94.70;;;;;;5010189;28;20515;-64
2021/01/20 07:54:46;;;;;;;1.70;0.20;;;7.50;94.80;;;;;;5015341;28;20442;-64
2021/01/20 07:57:15;;;;;;;2.90;0.73;;;7.50;94.80;;;;;;5013728;28;20527;-65
2021/01/20 07:59:41;;;;;;;1.70;0.30;;;7.50;95.30;;;;;;5008795;28;20532;-64
2021/01/20 08:02:16;;;;;;;1.70;0.20;;;7.60;94.90;;;;;;5010224;28;20879;-64
2021/01/20 08:04:42;;;;;;;1.70;0.20;;;7.60;95.20;;;;;;5008133;28;20175;-65
2021/01/20 08:07:10;;;;;;;1.70;0.30;;;7.60;95.00;;;;;;4996145;28;20524;-64
2021/01/20 08:09:37;;;;;;;2.43;0.50;;;7.60;95.00;;;;;;5012247;28;20190;-64
2021/01/20 08:12:13;;;;;;;1.90;0.50;;;7.60;95.00;;;;;;5016258;28;20452;-64
2021/01/20 08:14:42;;;;;;;1.70;0.20;;;7.60;94.90;;;;;;5008536;28;20441;-64
2021/01/20 08:17:08;;;;;;;1.63;0.20;;;7.60;95.20;;;;;;5018557;28;20519;-64
2021/01/20 08:19:34;;;;;;;1.70;0.20;;;7.60;95.20;;;;;;5015577;28;20989;-64
2021/01/20 08:22:12;;;;;;;1.90;0.37;;;7.60;95.50;;;;;;5000001;28;20461;-62
2021/01/20 08:24:53;;;;;;;1.70;0.20;;;7.60;95.40;;;;;;5010205;28;20422;-63
2021/01/20 08:27:27;;;;;;;1.70;0.20;;;7.70;95.40;;;;;;5009971;28;20445;-62
2021/01/20 08:29:54;;;;;;;1.70;0.20;;;7.70;95.50;;;;;;5008281;28;20453;-62
2021/01/20 08:32:20;;;;;;;2.00;0.50;;;7.70;95.80;;;;;;5010013;28;20457;-62
2021/01/20 08:34:47;;;;;;;1.70;0.20;;;7.70;96.00;;;;;;5011095;28;20905;-62
2021/01/20 08:37:18;;;;;;;1.70;0.20;;;7.70;95.70;;;;;;5018339;28;20588;-62
2021/01/20 08:39:54;;;;;;;1.70;0.20;;;7.70;95.50;;;;;;5014838;28;20418;-62
2021/01/20 08:42:22;;;;;;;1.70;0.20;;;7.70;96.00;;;;;;5011725;28;20457;-62
2021/01/20 08:45:08;;;;;;;1.70;0.20;;;7.70;95.80;;;;;;5008787;28;20540;-61
2021/01/20 08:47:45;;;;;;;2.00;1.03;;;7.70;95.90;;;;;;5008594;28;20438;-61
2021/01/20 08:50:16;;;;;;;4.07;0.50;;;7.70;95.90;;;;;;5009282;28;20796;-62
2021/01/20 08:52:47;;;;;;;1.70;0.20;;;7.70;95.80;;;;;;5010943;28;21036;-62
2021/01/20 08:55:23;;;;;;;1.70;0.20;;;7.70;96.00;;;;;;5010016;28;20519;-62
2021/01/20 08:58:17;;;;;;;2.00;0.63;;;7.70;95.90;;;;;;5012290;28;20469;-62
2021/01/20 09:00:43;;;;;;;1.90;0.50;;;7.70;95.60;;;;;;5014923;28;20445;-62
2021/01/20 09:03:16;;;;;;;1.70;0.20;;;7.70;95.30;;;;;;5011159;28;20503;-61
2021/01/20 09:05:43;;;;;;;2.00;0.60;;;7.70;95.50;;;;;;5008999;28;20524;-62
2021/01/20 09:08:10;;;;;;;2.00;1.13;;;7.80;95.30;;;;;;5021233;28;20454;-62
2021/01/20 09:10:36;;;;;;;3.40;0.60;;;7.80;95.10;;;;;;5016516;28;20437;-61
2021/01/20 09:13:02;;;;;;;2.17;0.40;;;7.80;95.40;;;;;;5008575;28;20453;-61
2021/01/20 09:15:27;;;;;;;2.07;0.40;;;7.80;95.50;;;;;;5010722;28;20813;-63
2021/01/20 09:17:53;;;;;;;3.37;1.40;;;7.80;95.50;;;;;;4997893;28;20234;-61
2021/01/20 09:20:19;;;;;;;1.70;0.30;;;7.90;95.60;;;;;;5014436;28;20191;-61
2021/01/20 09:22:47;;;;;;;4.53;0.63;;;7.90;95.90;;;;;;5021834;28;20465;-61
2021/01/20 09:25:13;;;;;;;1.70;0.20;;;7.90;96.20;;;;;;5017532;28;20441;-62
2021/01/20 09:27:38;;;;;;;1.70;0.20;;;7.90;96.10;;;;;;5023639;28;20487;-63
2021/01/20 09:30:06;;;;;;;1.70;0.20;;;7.90;96.10;;;;;;5019516;28;20944;-61
2021/01/20 09:32:38;;;;;;;2.17;0.60;;;8.00;96.00;;;;;;5010025;28;20361;-62
2021/01/20 09:35:05;;;;;;;2.00;0.40;;;8.00;95.90;;;;;;5009378;28;20442;-66
2021/01/20 09:37:31;;;;;;;1.70;0.20;;;8.00;96.20;;;;;;5010135;28;20465;-61
2021/01/20 09:39:56;;;;;;;2.07;0.53;;;8.00;96.40;;;;;;4999818;28;20444;-61
2021/01/20 09:42:22;;;;;;;1.60;0.20;;;8.10;96.50;;;;;;5013261;28;20221;-62
2021/01/20 09:44:47;;;;;;;5.50;1.53;;;8.10;96.30;;;;;;5010033;28;20222;-62
2021/01/20 09:47:13;;;;;;;2.70;1.13;;;8.10;96.40;;;;;;5014309;28;20213;-62
2021/01/20 09:49:41;;;;;;;1.80;0.40;;;8.10;96.40;;;;;;5006570;28;20658;-62
2021/01/20 09:52:08;;;;;;;2.13;0.57;;;8.20;97.10;;;;;;5010974;28;20246;-61
2021/01/20 09:54:33;;;;;;;1.90;0.43;;;8.20;96.70;;;;;;5006566;28;20467;-62
2021/01/20 09:56:59;;;;;;;2.00;0.67;;;8.20;96.80;;;;;;5008154;28;20473;-62
2021/01/20 09:59:24;;;;;;;2.13;0.67;;;8.20;96.90;;;;;;5007580;28;20186;-62
2021/01/20 10:01:50;;;;;;;1.70;0.20;;;8.20;97.00;;;;;;5011060;28;20249;-62
2021/01/20 10:04:15;;;;;;;1.83;0.40;;;8.30;97.20;;;;;;5016255;28;20186;-63
2021/01/20 10:06:41;;;;;;;3.40;1.17;;;8.30;97.30;;;;;;5020371;28;20191;-63
2021/01/20 10:09:06;;;;;;;1.70;0.20;;;8.30;97.30;;;;;;5017217;28;20198;-62
2021/01/20 10:11:32;;;;;;;1.70;0.20;;;8.30;97.50;;;;;;5009895;28;20693;-62
2021/01/20 10:13:57;;;;;;;2.43;1.50;;;8.30;97.30;;;;;;5008055;28;20182;-62
2021/01/20 10:16:23;;;;;;;1.70;0.20;;;8.40;97.40;;;;;;5009352;28;20264;-62
2021/01/20 10:18:49;;;;;;;1.93;0.60;;;8.30;97.70;;;;;;5013111;28;20557;-63
2021/01/20 10:21:15;;;;;;;4.67;0.77;;;8.40;97.50;;;;;;5009906;28;20229;-62
2021/01/20 10:23:40;;;;;;;1.70;0.20;;;8.40;97.60;;;;;;5008040;28;20449;-62
2021/01/20 10:26:06;;;;;;;2.93;0.93;;;8.40;97.80;;;;;;5010215;28;20194;-63
2021/01/20 10:28:31;;;;;;;2.90;0.67;;;8.40;97.40;;;;;;5010332;28;20233;-62
2021/01/20 10:30:57;;;;;;;1.70;0.20;;;8.40;97.30;;;;;;5010112;28;20214;-63
2021/01/20 10:33:22;;;;;;;1.70;0.20;;;8.50;97.60;;;;;;5012791;28;20522;-63
2021/01/20 10:35:48;;;;;;;2.17;0.93;;;8.50;97.70;;;;;;5004516;28;20594;-63
2021/01/20 10:38:13;;;;;;;2.23;0.73;;;8.50;97.60;;;;;;5007696;28;20716;-63
2021/01/20 10:40:39;;;;;;;4.07;1.00;;;8.50;97.60;;;;;;5011591;28;20196;-63
2021/01/20 10:43:04;;;;;;;1.80;0.30;;;8.50;97.70;;;;;;5003152;28;20558;-63
2021/01/20 10:45:30;;;;;;;1.70;0.20;;;8.60;98.00;;;;;;5007035;28;20195;-63
2021/01/20 10:47:55;;;;;;;1.70;0.20;;;8.60;97.90;;;;;;5012245;28;20273;-62
2021/01/20 10:50:21;;;;;;;1.70;0.20;;;8.60;98.00;;;;;;5009363;28;20201;-62
2021/01/20 10:52:46;;;;;;;1.80;0.30;;;8.70;98.00;;;;;;5009219;28;20223;-61
2021/01/20 10:55:12;;;;;;;2.33;0.60;;;8.70;97.90;;;;;;5012564;28;20550;-62
2021/01/20 10:57:37;;;;;;;1.73;0.33;;;8.70;98.10;;;;;;5006760;28;20229;-62
2021/01/20 11:00:04;;;;;;;1.90;0.33;;;8.80;98.10;;;;;;5009197;28;20186;-62
2021/01/20 11:02:29;;;;;;;1.70;0.20;;;8.80;98.10;;;;;;5010228;28;20247;-64
2021/01/20 11:04:55;;;;;;;1.93;0.43;;;8.80;98.00;;;;;;5006964;28;20445;-62
2021/01/20 11:07:20;;;;;;;2.00;0.40;;;8.90;98.30;;;;;;4993919;28;20870;-62
2021/01/20 11:09:47;;;;;;;1.70;0.20;;;8.90;98.00;;;;;;5010660;28;20222;-62
2021/01/20 11:12:13;;;;;;;2.00;0.73;;;8.90;98.00;;;;;;5007180;28;20276;-61
2021/01/20 11:14:38;;;;;;;1.80;0.30;;;9.00;98.00;;;;;;5007327;28;20449;-62
2021/01/20 11:17:04;;;;;;;2.00;0.40;;;9.00;98.30;;;;;;5012377;28;20470;-64
2021/01/20 11:19:29;;;;;;;1.70;0.20;;;9.00;98.40;;;;;;5013868;28;20247;-65
2021/01/20 11:21:56;;;;;;;1.70;0.20;;;9.00;98.10;;;;;;5024428;28;20197;-65
2021/01/20 11:24:22;;;;;;;2.37;0.90;;;9.00;98.20;;;;;;5019469;28;20175;-64
2021/01/20 11:26:48;;;;;;;2.73;1.10;;;9.00;98.10;;;;;;5010497;28;20472;-64
2021/01/20 11:29:14;;;;;;;2.57;1.00;;;9.10;98.10;;;;;;5012475;28;20976;-64
2021/01/20 11:31:40;;;;;;;1.70;0.20;;;9.10;97.80;;;;;;5005769;28;20811;-64
2021/01/20 11:34:05;;;;;;;1.70;0.20;;;9.10;98.20;;;;;;5008533;28;20445;-65
2021/01/20 11:36:31;;;;;;;2.00;0.50;;;9.10;98.20;;;;;;5012198;28;20206;-64
2021/01/20 11:38:57;;;;;;;2.10;0.60;;;9.10;98.10;;;;;;5007888;28;20195;-64
2021/01/20 11:41:23;;;;;;;1.70;0.20;;;9.10;97.90;;;;;;5004821;28;20206;-63
2021/01/20 11:43:48;;;;;;;1.80;0.30;;;9.10;98.00;;;;;;5006034;28;20445;-64
2021/01/20 11:46:14;;;;;;;1.70;0.20;;;9.20;98.10;;;;;;5005778;28;20745;-65
2021/01/20 11:48:40;;;;;;;1.70;0.20;;;9.20;98.20;;;;;;4994074;28;20653;-67
2021/01/20 11:51:06;;;;;;;1.70;0.20;;;9.20;98.30;;;;;;5014894;28;20560;-64
2021/01/20 11:53:32;;;;;;;1.83;0.40;;;9.20;98.30;;;;;;5014710;28;20182;-65
2021/01/20 11:55:57;;;;;;;1.70;0.20;;;9.20;98.10;;;;;;5018314;28;20448;-66
2021/01/20 11:58:23;;;;;;;1.70;0.20;;;9.30;98.00;;;;;;5014450;28;20650;-66
2021/01/20 12:00:48;;;;;;;1.70;0.20;;;9.30;97.80;;;;;;5012103;28;20289;-65
2021/01/20 12:03:14;;;;;;;1.70;0.20;;;9.40;97.70;;;;;;5014788;28;20178;-64
2021/01/20 12:05:40;;;;;;;1.70;0.20;;;9.40;97.70;;;;;;5015025;28;20222;-65
2021/01/20 12:08:05;;;;;;;1.70;0.30;;;9.40;97.90;;;;;;5012546;28;20197;-65
2021/01/20 12:10:31;;;;;;;1.70;0.20;;;9.40;97.80;;;;;;5014089;28;20175;-64
2021/01/20 12:12:56;;;;;;;1.70;0.37;;;9.40;97.70;;;;;;5006749;28;20283;-65
2021/01/20 12:15:22;;;;;;;1.70;0.20;;;9.40;97.50;;;;;;5010401;28;20184;-65
2021/01/20 12:17:47;;;;;;;2.10;0.30;;;9.40;97.80;;;;;;5010913;28;20230;-65
2021/01/20 12:20:13;;;;;;;1.70;0.20;;;9.40;97.60;;;;;;5010995;28;20186;-66
2021/01/20 12:22:39;;;;;;;1.70;0.20;;;9.40;98.10;;;;;;5009658;28;20219;-65
2021/01/20 12:25:06;;;;;;;1.70;0.20;;;9.40;98.00;;;;;;5012871;28;20445;-65
2021/01/20 12:27:33;;;;;;;1.70;0.20;;;9.50;98.00;;;;;;5010081;28;20463;-65
2021/01/20 12:29:59;;;;;;;2.13;0.60;;;9.50;97.90;;;;;;5025486;28;20446;-64
2021/01/20 12:32:25;;;;;;;1.70;0.20;;;9.60;97.90;;;;;;5024884;28;20556;-65
2021/01/20 12:34:51;;;;;;;1.67;0.20;;;9.60;97.80;;;;;;5010583;28;20499;-65
2021/01/20 12:37:16;;;;;;;1.70;0.20;;;9.60;97.70;;;;;;5009275;28;20505;-64
2021/01/20 12:39:42;;;;;;;1.70;0.20;;;9.70;97.70;;;;;;4995309;28;20198;-65
2021/01/20 12:42:07;;;;;;;1.70;0.20;;;9.70;97.70;;;;;;5010687;28;20214;-65
2021/01/20 12:44:33;;;;;;;1.70;0.20;;;9.70;97.80;;;;;;5014390;28;20261;-64
2021/01/20 12:46:59;;;;;;;1.70;0.20;;;9.70;97.80;;;;;;5008394;28;20646;-65
2021/01/20 12:49:24;;;;;;;1.70;0.20;;;9.70;97.60;;;;;;5012135;28;20270;-65
2021/01/20 12:51:50;;;;;;;1.70;0.20;;;9.70;97.70;;;;;;5004072;28;20231;-65
2021/01/20 12:54:15;;;;;;;1.80;0.30;;;9.70;97.60;;;;;;5013753;28;20191;-65
2021/01/20 12:56:41;;;;;;;1.70;0.20;;;9.80;97.20;;;;;;4997658;28;20215;-64
2021/01/20 12:59:06;;;;;;;1.70;0.20;;;9.90;97.50;;;;;;5010237;28;20340;-65
2021/01/20 13:01:32;;;;;;;1.90;0.30;;;9.90;96.90;;;;;;5011002;28;20633;-64